createdAt,value
2024-01-31T00:00:06.608Z,12.32
2024-01-31T00:02:33.139Z,12.82
2024-01-31T00:05:00.018Z,16.52
2024-01-31T00:07:28.206Z,14.63
2024-01-31T00:09:54.934Z,14.25
2024-01-31T00:12:21.487Z,12.30
2024-01-31T00:14:48.013Z,13.30
2024-01-31T00:17:14.537Z,15.35
2024-01-31T00:19:41.123Z,11.85
2024-01-31T00:22:07.731Z,12.03
2024-01-31T00:24:35.617Z,13.90
2024-01-31T00:27:02.270Z,12.77
2024-01-31T00:29:28.800Z,15.73
2024-01-31T00:31:55.411Z,14.33
2024-01-31T00:34:22.095Z,15.75
2024-01-31T00:36:48.686Z,13.43
2024-01-31T00:39:15.295Z,12.00
2024-01-31T00:41:43.201Z,12.37
2024-01-31T00:44:09.708Z,13.00
2024-01-31T00:46:41.726Z,12.13
2024-01-31T00:49:08.353Z,10.10
2024-01-31T00:51:34.911Z,9.10
2024-01-31T00:54:01.468Z,8.75
2024-01-31T00:56:28.060Z,12.55
2024-01-31T00:58:55.899Z,13.70
2024-01-31T01:01:22.473Z,9.98
2024-01-31T01:09:31.536Z,9.07
2024-01-31T01:11:58.052Z,10.93
2024-01-31T01:14:25.963Z,9.70
2024-01-31T01:16:52.572Z,9.73
2024-01-31T01:19:19.325Z,13.13
2024-01-31T01:21:45.852Z,8.68
2024-01-31T01:24:12.377Z,11.02
2024-01-31T01:26:39.497Z,9.23
2024-01-31T01:29:05.999Z,10.55
2024-01-31T01:31:33.937Z,11.93
2024-01-31T01:34:00.715Z,9.95
2024-01-31T01:36:27.448Z,14.00
2024-01-31T01:38:53.943Z,12.60
2024-01-31T01:41:20.478Z,14.85
2024-01-31T01:43:48.615Z,8.93
2024-01-31T01:46:17.912Z,10.48
2024-01-31T01:48:46.150Z,11.70
2024-01-31T01:51:15.708Z,8.02
2024-01-31T01:53:42.635Z,11.38
2024-01-31T01:56:09.776Z,9.18
2024-01-31T01:58:37.457Z,11.75
2024-01-31T02:01:04.622Z,9.13
2024-01-31T02:03:31.693Z,10.25
2024-01-31T02:06:01.110Z,13.43
2024-01-31T02:08:28.579Z,9.32
2024-01-31T02:10:55.498Z,9.18
2024-01-31T02:13:22.837Z,13.05
2024-01-31T02:15:53.257Z,12.35
2024-01-31T02:18:20.003Z,10.00
2024-01-31T02:20:46.904Z,11.35
2024-01-31T02:23:14.747Z,9.73
2024-01-31T02:25:41.296Z,15.23
2024-01-31T02:28:07.903Z,16.67
2024-01-31T02:30:34.508Z,17.20
2024-01-31T02:33:01.074Z,13.30
2024-01-31T02:35:27.948Z,15.13
2024-01-31T02:37:54.469Z,13.05
2024-01-31T02:40:22.385Z,11.67
2024-01-31T02:42:49.508Z,10.15
2024-01-31T02:45:16.153Z,11.05
2024-01-31T02:47:42.760Z,15.77
2024-01-31T02:50:10.083Z,14.30
2024-01-31T02:52:36.949Z,13.95
2024-01-31T02:55:04.112Z,10.32
2024-01-31T02:57:32.068Z,11.13
2024-01-31T02:59:58.707Z,9.50
2024-01-31T03:02:25.172Z,12.27
2024-01-31T03:04:51.743Z,11.23
2024-01-31T03:07:18.419Z,15.40
2024-01-31T03:09:45.120Z,10.53
2024-01-31T03:12:11.654Z,13.33
2024-01-31T03:14:39.686Z,10.95
2024-01-31T03:17:06.176Z,13.30
2024-01-31T03:19:33.469Z,12.30
2024-01-31T03:24:26.601Z,11.40
2024-01-31T03:26:53.089Z,12.00
2024-01-31T03:29:19.600Z,15.68
2024-01-31T03:31:47.585Z,9.77
2024-01-31T03:34:14.500Z,9.40
2024-01-31T03:36:41.045Z,10.60
2024-01-31T03:39:07.557Z,11.88
2024-01-31T03:41:34.112Z,15.98
2024-01-31T03:44:00.646Z,14.23
2024-01-31T03:46:27.248Z,12.35
2024-01-31T03:48:55.169Z,15.60
2024-01-31T03:51:22.420Z,13.32
2024-01-31T03:53:49.184Z,12.30
2024-01-31T03:56:16.187Z,18.48
2024-01-31T03:58:43.326Z,17.80
2024-01-31T04:01:10.291Z,11.50
2024-01-31T04:03:38.052Z,16.38
2024-01-31T04:06:06.256Z,13.10
2024-01-31T04:08:32.784Z,15.63
2024-01-31T04:10:59.286Z,9.43
2024-01-31T04:13:25.846Z,12.63
2024-01-31T04:15:53.304Z,14.63
2024-01-31T04:20:47.055Z,21.20
2024-01-31T04:23:14.942Z,15.73
2024-01-31T04:25:41.503Z,18.20
2024-01-31T04:28:08.077Z,17.77
2024-01-31T04:30:34.646Z,18.03
2024-01-31T04:33:01.941Z,15.37
2024-01-31T04:35:28.819Z,12.38
2024-01-31T04:37:55.661Z,15.65
2024-01-31T04:40:23.609Z,16.42
2024-01-31T04:42:53.197Z,13.15
2024-01-31T04:45:20.941Z,11.68
2024-01-31T04:47:47.620Z,15.07
2024-01-31T04:50:14.416Z,21.73
2024-01-31T04:52:41.121Z,14.95
2024-01-31T04:55:08.185Z,13.33
2024-01-31T04:57:36.222Z,15.50
2024-01-31T05:00:03.578Z,13.70
2024-01-31T05:02:30.097Z,15.90
2024-01-31T05:04:56.657Z,12.85
2024-01-31T05:07:23.247Z,13.50
2024-01-31T05:09:49.794Z,15.20
2024-01-31T05:12:16.392Z,12.07
2024-01-31T05:14:44.243Z,15.83
2024-01-31T05:17:10.721Z,18.15
2024-01-31T05:19:37.305Z,15.40
2024-01-31T05:22:04.419Z,19.10
2024-01-31T05:24:30.995Z,15.23
2024-01-31T05:26:57.521Z,16.87
2024-01-31T05:29:24.010Z,18.33
2024-01-31T05:31:52.012Z,16.02
2024-01-31T05:34:18.600Z,16.73
2024-01-31T05:36:45.212Z,14.30
2024-01-31T05:39:11.712Z,15.77
2024-01-31T05:41:41.925Z,11.77
2024-01-31T05:44:08.436Z,14.73
2024-01-31T05:46:35.004Z,13.57
2024-01-31T05:49:03.184Z,14.03
2024-01-31T05:51:30.082Z,16.77
2024-01-31T05:53:56.644Z,13.07
2024-01-31T05:56:23.279Z,13.77
2024-01-31T05:58:50.163Z,13.00
2024-01-31T06:01:17.301Z,11.23
2024-01-31T06:03:43.933Z,14.57
2024-01-31T06:06:11.898Z,16.52
2024-01-31T06:08:38.403Z,12.05
2024-01-31T06:11:04.890Z,12.80
2024-01-31T06:13:31.672Z,14.05
2024-01-31T06:15:58.308Z,17.10
2024-01-31T06:18:24.970Z,17.20
2024-01-31T06:20:51.565Z,12.40
2024-01-31T06:23:23.125Z,14.83
2024-01-31T06:25:50.047Z,12.82
2024-01-31T06:28:16.701Z,11.77
2024-01-31T06:30:43.234Z,15.07
2024-01-31T06:33:09.911Z,11.93
2024-01-31T06:35:36.956Z,11.23
2024-01-31T06:38:03.893Z,15.90
2024-01-31T06:40:31.972Z,15.32
2024-01-31T06:42:58.975Z,14.38
2024-01-31T06:45:25.610Z,11.40
2024-01-31T06:47:52.355Z,15.67
2024-01-31T06:50:19.538Z,14.73
2024-01-31T06:52:46.278Z,19.15
2024-01-31T06:55:13.896Z,12.13
2024-01-31T06:57:41.762Z,11.18
2024-01-31T07:00:09.640Z,10.45
2024-01-31T07:02:36.157Z,13.35
2024-01-31T07:05:02.793Z,13.52
2024-01-31T07:07:29.400Z,11.25
2024-01-31T07:09:56.010Z,11.13
2024-01-31T07:12:22.521Z,9.98
2024-01-31T07:14:50.373Z,13.07
2024-01-31T07:17:17.208Z,13.43
2024-01-31T07:19:44.001Z,14.40
2024-01-31T07:22:10.899Z,12.30
2024-01-31T07:24:37.451Z,13.57
2024-01-31T07:27:04.306Z,12.23
2024-01-31T07:29:31.290Z,13.02
2024-01-31T07:31:59.305Z,10.45
2024-01-31T07:34:25.958Z,15.40
2024-01-31T07:36:52.490Z,16.50
2024-01-31T07:39:19.001Z,11.95
2024-01-31T07:41:45.729Z,10.18
2024-01-31T07:44:12.354Z,9.05
2024-01-31T07:46:38.907Z,15.10
2024-01-31T07:49:06.924Z,11.77
2024-01-31T07:51:33.672Z,9.68
2024-01-31T07:54:00.179Z,11.73
2024-01-31T07:56:26.666Z,10.15
2024-01-31T07:58:53.275Z,14.20
2024-01-31T08:01:19.912Z,10.73
2024-01-31T08:03:46.484Z,11.77
2024-01-31T08:06:14.488Z,14.13
2024-01-31T08:08:41.210Z,13.90
2024-01-31T08:11:07.689Z,12.43
2024-01-31T08:13:34.366Z,12.25
2024-01-31T08:16:01.067Z,11.38
2024-01-31T08:18:27.586Z,10.40
2024-01-31T08:20:54.098Z,12.45
2024-01-31T08:23:22.111Z,13.55
2024-01-31T08:25:48.777Z,12.23
2024-01-31T08:28:15.398Z,9.93
2024-01-31T08:30:41.961Z,14.63
2024-01-31T08:33:08.558Z,11.10
2024-01-31T08:35:35.166Z,9.67
2024-01-31T08:38:01.708Z,15.63
2024-01-31T08:40:29.638Z,11.57
2024-01-31T08:42:56.178Z,16.38
2024-01-31T08:45:22.703Z,17.08
2024-01-31T08:47:49.322Z,14.37
2024-01-31T08:50:16.032Z,13.03
2024-01-31T08:52:42.746Z,12.98
2024-01-31T08:55:10.152Z,9.97
2024-01-31T09:00:05.666Z,18.02
2024-01-31T09:02:32.242Z,14.85
2024-01-31T09:04:58.809Z,16.17
2024-01-31T09:07:25.489Z,13.77
2024-01-31T09:09:52.051Z,21.87
2024-01-31T09:12:18.583Z,21.52
2024-01-31T09:14:46.434Z,18.15
2024-01-31T09:17:13.068Z,12.00
2024-01-31T09:19:40.883Z,19.03
2024-01-31T09:22:08.302Z,15.10
2024-01-31T09:24:34.848Z,18.23
2024-01-31T09:27:02.117Z,18.50
2024-01-31T09:29:28.702Z,17.52
2024-01-31T09:31:56.657Z,13.93
2024-01-31T09:34:24.308Z,13.57
2024-01-31T09:36:50.929Z,11.25
2024-01-31T09:39:17.436Z,11.48
2024-01-31T09:41:43.959Z,12.07
2024-01-31T09:44:10.881Z,10.05
2024-01-31T09:46:40.373Z,11.77
2024-01-31T09:49:08.533Z,12.65
2024-01-31T09:51:35.167Z,17.17
2024-01-31T09:54:01.728Z,14.50
2024-01-31T09:56:28.609Z,11.20
2024-01-31T09:58:55.499Z,17.40
2024-01-31T10:01:28.504Z,10.15
2024-01-31T10:03:58.528Z,13.07
2024-01-31T10:06:26.899Z,13.38
2024-01-31T10:08:53.465Z,12.00
2024-01-31T10:11:20.075Z,12.60
2024-01-31T10:13:48.282Z,10.93
2024-01-31T10:16:15.314Z,11.85
2024-01-31T10:18:41.909Z,11.50
2024-01-31T10:21:09.955Z,12.17
2024-01-31T10:23:37.976Z,13.18
2024-01-31T10:26:06.954Z,14.73
2024-01-31T10:28:34.516Z,13.13
2024-01-31T10:31:01.239Z,12.60
2024-01-31T10:33:28.738Z,9.83
2024-01-31T10:38:25.734Z,11.27
2024-01-31T10:40:56.422Z,11.05
2024-01-31T10:43:24.054Z,13.07
2024-01-31T10:45:50.674Z,15.73
2024-01-31T10:48:17.629Z,12.93
2024-01-31T10:50:44.667Z,14.55
2024-01-31T10:53:13.004Z,13.55
2024-01-31T10:55:40.698Z,14.23
2024-01-31T10:58:10.250Z,16.20
2024-01-31T11:00:37.560Z,18.48
2024-01-31T11:03:04.624Z,14.10
2024-01-31T11:05:31.388Z,11.70
2024-01-31T11:07:59.440Z,11.50
2024-01-31T11:10:26.059Z,12.40
2024-01-31T11:12:57.458Z,14.02
2024-01-31T11:15:30.769Z,13.18
2024-01-31T11:18:05.000Z,17.67
2024-01-31T11:20:33.340Z,15.50
2024-01-31T11:22:59.868Z,14.18
2024-01-31T11:25:28.109Z,10.65
2024-01-31T11:27:55.839Z,12.77
2024-01-31T11:30:22.793Z,14.10
2024-01-31T11:32:51.556Z,14.07
2024-01-31T11:35:18.612Z,13.52
2024-01-31T11:37:45.167Z,13.10
2024-01-31T11:40:11.744Z,16.48
2024-01-31T11:42:38.344Z,16.93
2024-01-31T11:45:05.529Z,15.27
2024-01-31T11:47:33.404Z,13.80
2024-01-31T11:50:02.929Z,15.48
2024-01-31T11:52:29.475Z,13.57
2024-01-31T11:54:56.243Z,14.65
2024-01-31T11:57:22.846Z,14.77
2024-01-31T11:59:49.474Z,12.73
2024-01-31T12:02:16.210Z,10.90
2024-01-31T12:04:51.332Z,15.35
2024-01-31T12:07:19.251Z,11.88
2024-01-31T12:09:45.820Z,14.60
2024-01-31T12:12:13.205Z,15.02
2024-01-31T12:17:19.120Z,13.20
2024-01-31T12:19:45.747Z,21.10
2024-01-31T12:22:12.313Z,15.03
2024-01-31T12:24:40.280Z,12.50
2024-01-31T12:27:06.897Z,14.48
2024-01-31T12:29:33.519Z,12.87
2024-01-31T12:32:00.028Z,18.02
2024-01-31T12:34:26.549Z,10.20
2024-01-31T12:36:53.097Z,8.52
2024-01-31T12:39:19.619Z,9.93
2024-01-31T12:41:49.845Z,15.02
2024-01-31T12:44:17.618Z,12.05
2024-01-31T12:46:44.626Z,14.57
2024-01-31T12:49:11.269Z,12.27
2024-01-31T12:51:37.795Z,8.37
2024-01-31T12:54:04.632Z,8.23
2024-01-31T12:56:31.388Z,12.07
2024-01-31T12:58:59.261Z,11.80
2024-01-31T13:01:25.837Z,12.30
2024-01-31T13:03:52.551Z,7.63
2024-01-31T13:06:19.606Z,8.93
2024-01-31T13:08:46.437Z,10.95
2024-01-31T13:11:13.493Z,7.90
2024-01-31T13:13:40.134Z,8.75
2024-01-31T13:16:08.641Z,6.97
2024-01-31T13:18:36.258Z,11.57
2024-01-31T13:21:03.062Z,11.05
2024-01-31T13:23:29.570Z,14.02
2024-01-31T13:25:56.085Z,18.63
2024-01-31T13:28:22.559Z,13.57
2024-01-31T13:30:49.590Z,20.20
2024-01-31T13:33:17.640Z,12.43
2024-01-31T13:35:44.261Z,17.38
2024-01-31T13:38:10.809Z,15.10
2024-01-31T13:40:37.308Z,24.65
2024-01-31T13:43:04.234Z,14.65
2024-01-31T13:45:30.759Z,17.52
2024-01-31T13:47:57.411Z,16.80
2024-01-31T13:50:25.450Z,25.70
2024-01-31T13:52:51.999Z,14.52
2024-01-31T13:55:18.511Z,37.80
2024-01-31T13:57:45.220Z,21.55
2024-01-31T14:00:13.245Z,20.00
2024-01-31T14:02:39.880Z,24.73
2024-01-31T14:05:06.832Z,22.30
2024-01-31T14:07:34.666Z,24.05
2024-01-31T14:10:01.152Z,28.30
2024-01-31T14:12:27.654Z,28.75
2024-01-31T14:14:54.219Z,25.10
2024-01-31T14:17:20.749Z,26.58
2024-01-31T14:19:47.270Z,20.95
2024-01-31T14:22:20.733Z,25.17
2024-01-31T14:24:54.372Z,25.67
2024-01-31T14:27:20.926Z,19.40
2024-01-31T14:29:48.830Z,25.08
2024-01-31T14:32:16.161Z,24.65
2024-01-31T14:35:01.434Z,22.20
2024-01-31T14:37:27.946Z,22.08
2024-01-31T14:39:55.788Z,26.15
2024-01-31T14:42:22.315Z,29.70
2024-01-31T14:44:48.897Z,27.13
2024-01-31T14:47:15.406Z,29.02
2024-01-31T14:49:42.039Z,29.40
2024-01-31T14:52:11.421Z,29.07
2024-01-31T14:54:38.232Z,32.65
2024-01-31T14:57:06.330Z,34.47
2024-01-31T14:59:32.925Z,33.42
2024-01-31T15:01:59.414Z,36.67
2024-01-31T15:04:26.012Z,26.30
2024-01-31T15:06:52.638Z,27.38
2024-01-31T15:09:19.250Z,27.33
2024-01-31T15:11:45.828Z,25.52
2024-01-31T15:14:13.790Z,25.50
2024-01-31T15:16:40.303Z,22.50
2024-01-31T15:19:07.067Z,26.55
2024-01-31T15:21:33.739Z,27.42
2024-01-31T15:24:00.306Z,25.35
2024-01-31T15:26:26.934Z,25.57
2024-01-31T15:28:53.443Z,26.43
2024-01-31T15:31:21.439Z,23.50
2024-01-31T15:33:48.581Z,25.08
2024-01-31T15:36:15.236Z,30.65
2024-01-31T15:38:43.603Z,30.75
2024-01-31T15:41:10.142Z,30.95
2024-01-31T15:43:36.636Z,26.08
2024-01-31T15:46:03.271Z,31.83
2024-01-31T15:48:31.227Z,28.83
2024-01-31T15:50:57.847Z,27.55
2024-01-31T15:53:24.481Z,22.58
2024-01-31T15:55:50.990Z,31.27
2024-01-31T15:58:17.507Z,38.50
2024-01-31T16:00:44.063Z,23.30
2024-01-31T16:03:10.652Z,29.00
2024-01-31T16:05:38.711Z,25.00
2024-01-31T16:08:05.648Z,23.40
2024-01-31T16:10:32.242Z,28.13
2024-01-31T16:12:58.736Z,31.93
2024-01-31T16:15:25.238Z,26.60
2024-01-31T16:17:51.807Z,32.05
2024-01-31T16:20:18.476Z,24.27
2024-01-31T16:22:46.442Z,30.43
2024-01-31T16:25:13.126Z,31.40
2024-01-31T16:27:39.651Z,26.80
2024-01-31T16:30:07.323Z,26.52
2024-01-31T16:32:33.898Z,29.65
2024-01-31T16:35:00.519Z,29.98
2024-01-31T16:37:27.777Z,34.60
2024-01-31T16:39:55.599Z,25.90
2024-01-31T16:42:22.100Z,33.13
2024-01-31T16:44:48.645Z,31.40
2024-01-31T16:47:15.240Z,34.63
2024-01-31T16:49:41.896Z,30.37
2024-01-31T16:52:08.529Z,34.93
2024-01-31T16:54:35.074Z,27.02
2024-01-31T16:57:03.004Z,26.70
2024-01-31T16:59:29.562Z,28.98
2024-01-31T17:01:56.071Z,23.83
2024-01-31T17:04:22.604Z,26.20
2024-01-31T17:06:49.100Z,26.55
2024-01-31T17:09:15.742Z,30.40
2024-01-31T17:11:42.347Z,18.10
2024-01-31T17:14:10.220Z,18.47
2024-01-31T17:16:42.248Z,21.90
2024-01-31T17:19:08.924Z,18.52
2024-01-31T17:21:35.526Z,14.88
2024-01-31T17:24:02.104Z,9.93
2024-01-31T17:26:28.698Z,12.13
2024-01-31T17:28:55.256Z,10.48
2024-01-31T17:31:23.698Z,8.97
2024-01-31T17:33:52.576Z,8.15
2024-01-31T17:36:20.862Z,15.65
2024-01-31T17:38:47.391Z,9.43
2024-01-31T17:41:16.840Z,9.88
2024-01-31T17:43:43.747Z,8.23
2024-01-31T17:46:10.302Z,15.70
2024-01-31T17:48:38.257Z,6.37
2024-01-31T17:51:05.402Z,7.45
2024-01-31T17:53:31.996Z,9.27
2024-01-31T17:56:00.315Z,10.90
2024-01-31T17:58:26.839Z,16.67
2024-01-31T18:00:53.576Z,14.32
2024-01-31T18:03:20.227Z,18.75
2024-01-31T18:05:48.208Z,13.20
2024-01-31T18:08:14.793Z,14.70
2024-01-31T18:10:41.292Z,17.00
2024-01-31T18:13:08.035Z,13.77
2024-01-31T18:15:34.625Z,15.27
2024-01-31T18:18:01.254Z,10.87
2024-01-31T18:20:27.914Z,19.07
2024-01-31T18:22:55.841Z,8.20
2024-01-31T18:25:22.358Z,12.43
2024-01-31T18:27:48.852Z,9.85
2024-01-31T18:30:16.001Z,13.50
2024-01-31T18:32:42.707Z,9.07
2024-01-31T18:35:09.866Z,13.75
2024-01-31T18:37:36.573Z,17.48
2024-01-31T18:40:05.549Z,6.72
2024-01-31T18:42:32.184Z,13.45
2024-01-31T18:44:58.747Z,10.37
2024-01-31T18:47:25.429Z,13.63
2024-01-31T18:49:52.064Z,8.83
2024-01-31T18:52:18.715Z,7.87
2024-01-31T18:54:45.234Z,13.60
2024-01-31T18:57:13.297Z,12.10
2024-01-31T18:59:39.868Z,9.65
2024-01-31T19:02:06.449Z,10.52
2024-01-31T19:04:33.134Z,7.65
2024-01-31T19:06:59.830Z,9.77
2024-01-31T19:09:26.460Z,12.23
2024-01-31T19:11:53.053Z,6.22
2024-01-31T19:14:21.011Z,8.93
2024-01-31T19:16:47.641Z,11.80
2024-01-31T19:19:14.426Z,10.82
2024-01-31T19:21:41.663Z,12.90
2024-01-31T19:24:08.354Z,11.88
2024-01-31T19:26:35.011Z,9.77
2024-01-31T19:29:01.985Z,11.50
2024-01-31T19:31:29.963Z,10.75
2024-01-31T19:33:56.598Z,16.85
2024-01-31T19:36:25.337Z,8.30
2024-01-31T19:38:52.497Z,8.10
2024-01-31T19:41:19.354Z,11.45
2024-01-31T19:43:45.950Z,12.68
2024-01-31T19:46:14.825Z,18.13
2024-01-31T19:48:45.895Z,8.35
2024-01-31T19:51:12.713Z,10.55
2024-01-31T19:53:50.982Z,7.17
2024-01-31T19:56:18.070Z,15.35
2024-01-31T19:58:44.642Z,8.57
2024-01-31T20:01:11.369Z,12.10
2024-01-31T20:03:39.708Z,10.77
2024-01-31T20:06:07.817Z,12.63
2024-01-31T20:08:34.545Z,13.38
2024-01-31T20:11:01.252Z,9.80
2024-01-31T20:13:27.741Z,11.30
2024-01-31T20:15:54.281Z,9.65
2024-01-31T20:18:20.913Z,15.23
2024-01-31T20:20:48.341Z,10.95
2024-01-31T20:23:17.151Z,12.48
2024-01-31T20:25:43.674Z,12.02
2024-01-31T20:28:10.192Z,10.95
2024-01-31T20:30:36.805Z,12.05
2024-01-31T20:33:03.985Z,15.53
2024-01-31T20:35:30.647Z,13.95
2024-01-31T20:37:57.139Z,13.17
2024-01-31T20:40:25.004Z,10.20
2024-01-31T20:42:51.518Z,11.60
2024-01-31T20:45:18.086Z,14.63
2024-01-31T20:47:45.010Z,10.07
2024-01-31T20:50:12.336Z,14.73
2024-01-31T20:52:38.931Z,11.45
2024-01-31T20:55:07.092Z,13.90
2024-01-31T20:57:35.111Z,13.73
2024-01-31T21:00:01.922Z,16.20
2024-01-31T21:02:28.582Z,14.27
2024-01-31T21:04:55.201Z,10.17
2024-01-31T21:07:21.742Z,8.23
2024-01-31T21:09:48.215Z,13.20
2024-01-31T21:12:14.782Z,15.45
2024-01-31T21:14:42.794Z,17.53
2024-01-31T21:17:09.361Z,10.52
2024-01-31T21:19:35.937Z,11.48
2024-01-31T21:22:02.482Z,9.10
2024-01-31T21:24:30.323Z,13.35
2024-01-31T21:26:56.921Z,10.35
2024-01-31T21:29:23.454Z,9.25
2024-01-31T21:31:51.314Z,15.27
2024-01-31T21:34:18.014Z,11.30
2024-01-31T21:36:44.656Z,9.45
2024-01-31T21:39:11.260Z,11.80
2024-01-31T21:41:37.810Z,8.93
2024-01-31T21:44:04.773Z,8.40
2024-01-31T21:46:31.471Z,15.50
2024-01-31T21:48:59.672Z,14.63
2024-01-31T21:51:26.343Z,12.27
2024-01-31T21:53:53.067Z,14.23
2024-01-31T21:56:19.666Z,18.65
2024-01-31T21:58:46.222Z,15.60
2024-01-31T22:01:12.755Z,13.77
2024-01-31T22:03:50.024Z,13.10
2024-01-31T22:06:27.092Z,13.77
2024-01-31T22:08:54.257Z,17.45
2024-01-31T22:11:20.781Z,15.00
2024-01-31T22:13:47.423Z,19.67
2024-01-31T22:16:14.298Z,14.03
2024-01-31T22:18:40.962Z,14.60
2024-01-31T22:21:07.668Z,17.08
2024-01-31T22:23:35.683Z,22.40
2024-01-31T22:26:02.260Z,15.85
2024-01-31T22:28:28.831Z,17.25
2024-01-31T22:30:56.307Z,19.30
2024-01-31T22:35:49.409Z,14.68
2024-01-31T22:38:15.998Z,20.33
2024-01-31T22:40:44.023Z,16.43
2024-01-31T22:43:10.550Z,16.38
2024-01-31T22:45:37.119Z,15.30
2024-01-31T22:48:04.121Z,12.95
2024-01-31T22:50:30.792Z,17.90
2024-01-31T22:52:57.338Z,17.67
2024-01-31T22:55:23.906Z,15.55
2024-01-31T22:57:51.752Z,12.73
2024-01-31T23:00:18.752Z,10.18
2024-01-31T23:02:45.367Z,12.70
2024-01-31T23:05:11.982Z,8.23
2024-01-31T23:07:38.529Z,14.73
2024-01-31T23:10:06.961Z,9.33
2024-01-31T23:12:33.467Z,11.02
2024-01-31T23:15:01.606Z,12.45
2024-01-31T23:17:28.996Z,9.05
2024-01-31T23:19:55.637Z,10.40
2024-01-31T23:22:22.324Z,15.48
2024-01-31T23:24:48.825Z,16.80
2024-01-31T23:27:15.447Z,11.23
2024-01-31T23:29:42.036Z,21.17
2024-01-31T23:32:09.985Z,14.47
2024-01-31T23:34:36.567Z,13.35
2024-01-31T23:37:03.142Z,8.80
2024-01-31T23:39:29.954Z,10.70
2024-01-31T23:41:56.808Z,9.80
2024-01-31T23:44:23.391Z,8.07
2024-01-31T23:46:49.932Z,8.50
2024-01-31T23:49:17.979Z,10.70
2024-01-31T23:51:44.670Z,7.97
2024-01-31T23:54:11.281Z,7.90
2024-01-31T23:56:38.142Z,5.40
2024-01-31T23:59:05.382Z,8.27
